sensor_id;sensor_type;location;lat;lon;timestamp;temperature;humidity
64858;SHT30;51335;51.148;6.950;2023-06-14T00:00:14;16.65;66.60
64858;SHT30;51335;51.148;6.950;2023-06-14T00:00:45;16.68;66.80
64858;SHT30;51335;51.148;6.950;2023-06-14T00:01:15;16.68;66.61
64858;SHT30;51335;51.148;6.950;2023-06-14T00:01:45;16.64;66.42
64858;SHT30;51335;51.148;6.950;2023-06-14T00:02:15;16.59;66.52
64858;SHT30;51335;51.148;6.950;2023-06-14T00:02:46;16.58;66.57
64858;SHT30;51335;51.148;6.950;2023-06-14T00:03:16;16.64;66.92
64858;SHT30;51335;51.148;6.950;2023-06-14T00:03:46;16.64;66.97
64858;SHT30;51335;51.148;6.950;2023-06-14T00:04:17;16.59;66.86
64858;SHT30;51335;51.148;6.950;2023-06-14T00:04:47;16.57;66.73
64858;SHT30;51335;51.148;6.950;2023-06-14T00:05:17;16.51;67.02
64858;SHT30;51335;51.148;6.950;2023-06-14T00:05:48;16.51;67.08
64858;SHT30;51335;51.148;6.950;2023-06-14T00:06:18;16.49;67.13
64858;SHT30;51335;51.148;6.950;2023-06-14T00:06:49;16.52;67.25
64858;SHT30;51335;51.148;6.950;2023-06-14T00:07:22;16.51;66.87
64858;SHT30;51335;51.148;6.950;2023-06-14T00:08:03;16.49;66.63
64858;SHT30;51335;51.148;6.950;2023-06-14T00:08:33;16.44;66.69
64858;SHT30;51335;51.148;6.950;2023-06-14T00:09:04;16.45;66.95
64858;SHT30;51335;51.148;6.950;2023-06-14T00:09:34;16.45;67.39
64858;SHT30;51335;51.148;6.950;2023-06-14T00:10:05;16.48;67.17
64858;SHT30;51335;51.148;6.950;2023-06-14T00:10:36;16.48;67.15
64858;SHT30;51335;51.148;6.950;2023-06-14T00:11:07;16.55;67.27
64858;SHT30;51335;51.148;6.950;2023-06-14T00:11:37;16.57;67.04
64858;SHT30;51335;51.148;6.950;2023-06-14T00:12:07;16.61;67.01
64858;SHT30;51335;51.148;6.950;2023-06-14T00:12:38;16.61;66.96
64858;SHT30;51335;51.148;6.950;2023-06-14T00:13:09;16.55;66.81
64858;SHT30;51335;51.148;6.950;2023-06-14T00:13:39;16.54;66.95
64858;SHT30;51335;51.148;6.950;2023-06-14T00:14:09;16.47;67.03
64858;SHT30;51335;51.148;6.950;2023-06-14T00:14:39;16.45;67.50
64858;SHT30;51335;51.148;6.950;2023-06-14T00:15:10;16.48;68.26
64858;SHT30;51335;51.148;6.950;2023-06-14T00:15:40;16.48;68.04
64858;SHT30;51335;51.148;6.950;2023-06-14T00:16:10;16.47;67.72
64858;SHT30;51335;51.148;6.950;2023-06-14T00:16:41;16.45;67.76
64858;SHT30;51335;51.148;6.950;2023-06-14T00:17:11;16.42;67.69
64858;SHT30;51335;51.148;6.950;2023-06-14T00:17:41;16.45;67.93
64858;SHT30;51335;51.148;6.950;2023-06-14T00:18:11;16.49;67.48
64858;SHT30;51335;51.148;6.950;2023-06-14T00:18:42;16.48;67.35
64858;SHT30;51335;51.148;6.950;2023-06-14T00:19:12;16.45;67.39
64858;SHT30;51335;51.148;6.950;2023-06-14T00:19:43;16.42;67.65
64858;SHT30;51335;51.148;6.950;2023-06-14T00:20:13;16.44;67.87
64858;SHT30;51335;51.148;6.950;2023-06-14T00:20:43;16.49;66.98
64858;SHT30;51335;51.148;6.950;2023-06-14T00:21:13;16.59;66.22
64858;SHT30;51335;51.148;6.950;2023-06-14T00:21:44;16.64;65.64
64858;SHT30;51335;51.148;6.950;2023-06-14T00:22:14;16.65;65.59
64858;SHT30;51335;51.148;6.950;2023-06-14T00:22:44;16.67;65.42
64858;SHT30;51335;51.148;6.950;2023-06-14T00:23:14;16.69;65.26
64858;SHT30;51335;51.148;6.950;2023-06-14T00:23:45;16.68;65.21
64858;SHT30;51335;51.148;6.950;2023-06-14T00:24:16;16.72;65.12
64858;SHT30;51335;51.148;6.950;2023-06-14T00:24:46;16.71;65.11
64858;SHT30;51335;51.148;6.950;2023-06-14T00:25:16;16.71;64.95
64858;SHT30;51335;51.148;6.950;2023-06-14T00:25:46;16.72;64.91
64858;SHT30;51335;51.148;6.950;2023-06-14T00:26:17;16.71;64.96
64858;SHT30;51335;51.148;6.950;2023-06-14T00:26:47;16.72;64.88
64858;SHT30;51335;51.148;6.950;2023-06-14T00:27:17;16.73;64.80
64858;SHT30;51335;51.148;6.950;2023-06-14T00:27:48;16.75;64.84
64858;SHT30;51335;51.148;6.950;2023-06-14T00:28:18;16.71;64.77
64858;SHT30;51335;51.148;6.950;2023-06-14T00:28:48;16.65;64.89
64858;SHT30;51335;51.148;6.950;2023-06-14T00:29:18;16.58;65.20
64858;SHT30;51335;51.148;6.950;2023-06-14T00:29:49;16.51;65.31
64858;SHT30;51335;51.148;6.950;2023-06-14T00:30:19;16.49;65.63
64858;SHT30;51335;51.148;6.950;2023-06-14T00:30:49;16.45;65.75
64858;SHT30;51335;51.148;6.950;2023-06-14T00:31:20;16.42;65.89
64858;SHT30;51335;51.148;6.950;2023-06-14T00:31:50;16.38;66.08
64858;SHT30;51335;51.148;6.950;2023-06-14T00:32:20;16.32;66.25
64858;SHT30;51335;51.148;6.950;2023-06-14T00:32:51;16.27;66.41
64858;SHT30;51335;51.148;6.950;2023-06-14T00:33:21;16.24;66.40
64858;SHT30;51335;51.148;6.950;2023-06-14T00:33:51;16.18;66.45
64858;SHT30;51335;51.148;6.950;2023-06-14T00:34:21;16.24;67.25
64858;SHT30;51335;51.148;6.950;2023-06-14T00:34:52;16.25;67.17
64858;SHT30;51335;51.148;6.950;2023-06-14T00:35:22;16.18;66.91
64858;SHT30;51335;51.148;6.950;2023-06-14T00:35:52;16.14;67.15
64858;SHT30;51335;51.148;6.950;2023-06-14T00:36:23;16.16;67.51
64858;SHT30;51335;51.148;6.950;2023-06-14T00:36:53;16.09;67.72
64858;SHT30;51335;51.148;6.950;2023-06-14T00:37:23;16.09;67.48
64858;SHT30;51335;51.148;6.950;2023-06-14T00:37:53;16.00;67.34
64858;SHT30;51335;51.148;6.950;2023-06-14T00:38:24;15.99;67.29
64858;SHT30;51335;51.148;6.950;2023-06-14T00:38:54;15.94;67.33
64858;SHT30;51335;51.148;6.950;2023-06-14T00:39:24;15.90;67.40
64858;SHT30;51335;51.148;6.950;2023-06-14T00:39:54;15.85;67.42
64858;SHT30;51335;51.148;6.950;2023-06-14T00:40:25;15.83;67.51
64858;SHT30;51335;51.148;6.950;2023-06-14T00:40:55;15.87;67.95
64858;SHT30;51335;51.148;6.950;2023-06-14T00:41:25;15.85;67.93
64858;SHT30;51335;51.148;6.950;2023-06-14T00:41:55;15.82;67.70
64858;SHT30;51335;51.148;6.950;2023-06-14T00:42:26;15.87;67.80
64858;SHT30;51335;51.148;6.950;2023-06-14T00:42:57;15.90;67.91
64858;SHT30;51335;51.148;6.950;2023-06-14T00:43:27;15.90;67.92
64858;SHT30;51335;51.148;6.950;2023-06-14T00:43:57;15.91;68.05
64858;SHT30;51335;51.148;6.950;2023-06-14T00:44:27;15.91;67.99
64858;SHT30;51335;51.148;6.950;2023-06-14T00:44:58;15.94;68.08
64858;SHT30;51335;51.148;6.950;2023-06-14T00:45:28;15.90;68.08
64858;SHT30;51335;51.148;6.950;2023-06-14T00:45:58;15.86;68.22
64858;SHT30;51335;51.148;6.950;2023-06-14T00:46:29;15.91;68.27
64858;SHT30;51335;51.148;6.950;2023-06-14T00:46:59;15.91;68.22
64858;SHT30;51335;51.148;6.950;2023-06-14T00:47:29;15.96;67.97
64858;SHT30;51335;51.148;6.950;2023-06-14T00:48:00;15.91;68.00
64858;SHT30;51335;51.148;6.950;2023-06-14T00:48:39;15.87;68.21
64858;SHT30;51335;51.148;6.950;2023-06-14T00:49:10;15.90;68.36
64858;SHT30;51335;51.148;6.950;2023-06-14T00:49:41;16.03;68.19
64858;SHT30;51335;51.148;6.950;2023-06-14T00:50:12;16.07;68.04
64858;SHT30;51335;51.148;6.950;2023-06-14T00:50:42;16.11;67.99
64858;SHT30;51335;51.148;6.950;2023-06-14T00:51:12;16.22;67.81
64858;SHT30;51335;51.148;6.950;2023-06-14T00:51:43;16.28;67.55
64858;SHT30;51335;51.148;6.950;2023-06-14T00:52:14;16.30;67.20
64858;SHT30;51335;51.148;6.950;2023-06-14T00:52:45;16.28;67.31
64858;SHT30;51335;51.148;6.950;2023-06-14T00:53:16;16.21;67.40
64858;SHT30;51335;51.148;6.950;2023-06-14T00:53:47;16.16;67.65
64858;SHT30;51335;51.148;6.950;2023-06-14T00:54:17;16.14;67.73
64858;SHT30;51335;51.148;6.950;2023-06-14T00:54:48;16.11;67.63
64858;SHT30;51335;51.148;6.950;2023-06-14T00:55:18;16.11;67.69
64858;SHT30;51335;51.148;6.950;2023-06-14T00:55:48;16.13;67.78
64858;SHT30;51335;51.148;6.950;2023-06-14T00:56:19;16.10;67.84
64858;SHT30;51335;51.148;6.950;2023-06-14T00:56:49;16.09;67.79
64858;SHT30;51335;51.148;6.950;2023-06-14T00:57:19;16.01;67.87
64858;SHT30;51335;51.148;6.950;2023-06-14T00:57:50;15.97;68.08
64858;SHT30;51335;51.148;6.950;2023-06-14T00:58:21;15.96;68.21
64858;SHT30;51335;51.148;6.950;2023-06-14T00:58:52;15.93;68.25
64858;SHT30;51335;51.148;6.950;2023-06-14T00:59:23;15.87;68.26
64858;SHT30;51335;51.148;6.950;2023-06-14T00:59:53;15.82;68.42
64858;SHT30;51335;51.148;6.950;2023-06-14T01:00:23;15.79;68.57
64858;SHT30;51335;51.148;6.950;2023-06-14T01:00:54;15.79;68.81
64858;SHT30;51335;51.148;6.950;2023-06-14T01:01:24;15.78;69.05
64858;SHT30;51335;51.148;6.950;2023-06-14T01:01:54;15.74;69.03
64858;SHT30;51335;51.148;6.950;2023-06-14T01:02:25;15.76;69.02
64858;SHT30;51335;51.148;6.950;2023-06-14T01:02:55;15.78;69.12
64858;SHT30;51335;51.148;6.950;2023-06-14T01:03:25;15.74;69.18
64858;SHT30;51335;51.148;6.950;2023-06-14T01:03:56;15.69;69.22
64858;SHT30;51335;51.148;6.950;2023-06-14T01:04:26;15.72;69.43
64858;SHT30;51335;51.148;6.950;2023-06-14T01:04:56;15.66;69.42
64858;SHT30;51335;51.148;6.950;2023-06-14T01:05:26;15.67;69.43
64858;SHT30;51335;51.148;6.950;2023-06-14T01:08:54;15.62;69.05
64858;SHT30;51335;51.148;6.950;2023-06-14T01:11:29;15.39;69.69
64858;SHT30;51335;51.148;6.950;2023-06-14T01:12:09;15.39;69.82
64858;SHT30;51335;51.148;6.950;2023-06-14T01:13:29;15.31;70.11
64858;SHT30;51335;51.148;6.950;2023-06-14T01:14:03;15.25;70.05
64858;SHT30;51335;51.148;6.950;2023-06-14T01:14:34;15.24;70.24
64858;SHT30;51335;51.148;6.950;2023-06-14T01:15:05;15.25;70.53
64858;SHT30;51335;51.148;6.950;2023-06-14T01:15:37;15.24;70.73
64858;SHT30;51335;51.148;6.950;2023-06-14T01:16:08;15.18;70.73
64858;SHT30;51335;51.148;6.950;2023-06-14T01:16:38;15.18;70.78
64858;SHT30;51335;51.148;6.950;2023-06-14T01:17:09;15.15;70.85
64858;SHT30;51335;51.148;6.950;2023-06-14T01:17:40;15.08;71.00
64858;SHT30;51335;51.148;6.950;2023-06-14T01:18:11;15.20;70.89
64858;SHT30;51335;51.148;6.950;2023-06-14T01:18:43;15.18;70.81
64858;SHT30;51335;51.148;6.950;2023-06-14T01:19:14;15.14;70.87
64858;SHT30;51335;51.148;6.950;2023-06-14T01:19:45;15.11;70.79
64858;SHT30;51335;51.148;6.950;2023-06-14T01:20:16;15.18;70.67
64858;SHT30;51335;51.148;6.950;2023-06-14T01:20:47;15.21;70.48
64858;SHT30;51335;51.148;6.950;2023-06-14T01:21:24;15.24;70.43
64858;SHT30;51335;51.148;6.950;2023-06-14T01:21:55;15.22;70.31
64858;SHT30;51335;51.148;6.950;2023-06-14T01:22:26;15.27;70.15
64858;SHT30;51335;51.148;6.950;2023-06-14T01:22:56;15.25;70.13
64858;SHT30;51335;51.148;6.950;2023-06-14T01:23:27;15.36;70.12
64858;SHT30;51335;51.148;6.950;2023-06-14T01:23:57;15.36;69.95
64858;SHT30;51335;51.148;6.950;2023-06-14T01:24:27;15.45;69.66
64858;SHT30;51335;51.148;6.950;2023-06-14T01:24:57;15.45;69.60
64858;SHT30;51335;51.148;6.950;2023-06-14T01:25:28;15.48;69.68
64858;SHT30;51335;51.148;6.950;2023-06-14T01:25:59;15.45;69.72
64858;SHT30;51335;51.148;6.950;2023-06-14T01:26:30;15.43;69.77
64858;SHT30;51335;51.148;6.950;2023-06-14T01:27:02;15.48;69.82
64858;SHT30;51335;51.148;6.950;2023-06-14T01:27:32;15.49;69.73
64858;SHT30;51335;51.148;6.950;2023-06-14T01:28:05;15.51;69.81
64858;SHT30;51335;51.148;6.950;2023-06-14T01:28:36;15.48;69.85
64858;SHT30;51335;51.148;6.950;2023-06-14T01:29:06;15.49;69.95
64858;SHT30;51335;51.148;6.950;2023-06-14T01:29:37;15.49;70.01
64858;SHT30;51335;51.148;6.950;2023-06-14T01:30:08;15.45;70.03
64858;SHT30;51335;51.148;6.950;2023-06-14T01:30:41;15.42;70.18
64858;SHT30;51335;51.148;6.950;2023-06-14T01:31:11;15.36;70.63
64858;SHT30;51335;51.148;6.950;2023-06-14T01:31:42;15.30;70.70
64858;SHT30;51335;51.148;6.950;2023-06-14T01:32:12;15.25;70.84
64858;SHT30;51335;51.148;6.950;2023-06-14T01:32:43;15.21;70.98
64858;SHT30;51335;51.148;6.950;2023-06-14T01:33:15;15.17;70.90
64858;SHT30;51335;51.148;6.950;2023-06-14T01:33:49;15.12;71.07
64858;SHT30;51335;51.148;6.950;2023-06-14T01:34:20;15.12;71.02
64858;SHT30;51335;51.148;6.950;2023-06-14T01:34:50;15.10;71.08
64858;SHT30;51335;51.148;6.950;2023-06-14T01:35:20;15.07;71.20
64858;SHT30;51335;51.148;6.950;2023-06-14T01:35:52;15.04;71.26
64858;SHT30;51335;51.148;6.950;2023-06-14T01:36:22;15.04;71.45
64858;SHT30;51335;51.148;6.950;2023-06-14T01:36:56;15.01;71.52
64858;SHT30;51335;51.148;6.950;2023-06-14T01:37:28;15.01;71.65
64858;SHT30;51335;51.148;6.950;2023-06-14T01:37:59;14.95;71.71
64858;SHT30;51335;51.148;6.950;2023-06-14T01:38:30;14.91;71.84
64858;SHT30;51335;51.148;6.950;2023-06-14T01:39:01;14.90;71.92
64858;SHT30;51335;51.148;6.950;2023-06-14T01:39:32;14.85;72.02
64858;SHT30;51335;51.148;6.950;2023-06-14T01:40:06;14.81;72.43
64858;SHT30;51335;51.148;6.950;2023-06-14T01:40:37;14.76;72.68
64858;SHT30;51335;51.148;6.950;2023-06-14T01:41:09;14.76;72.89
64858;SHT30;51335;51.148;6.950;2023-06-14T01:41:42;14.72;73.14
64858;SHT30;51335;51.148;6.950;2023-06-14T01:42:13;14.69;73.43
64858;SHT30;51335;51.148;6.950;2023-06-14T01:42:46;14.66;73.86
64858;SHT30;51335;51.148;6.950;2023-06-14T01:43:18;14.59;74.11
64858;SHT30;51335;51.148;6.950;2023-06-14T01:43:49;14.60;74.31
64858;SHT30;51335;51.148;6.950;2023-06-14T01:44:20;14.59;74.55
64858;SHT30;51335;51.148;6.950;2023-06-14T01:44:53;14.64;74.54
64858;SHT30;51335;51.148;6.950;2023-06-14T01:45:24;14.63;74.31
64858;SHT30;51335;51.148;6.950;2023-06-14T01:45:55;14.59;74.10
64858;SHT30;51335;51.148;6.950;2023-06-14T01:46:27;14.63;73.84
64858;SHT30;51335;51.148;6.950;2023-06-14T01:46:57;14.62;73.70
64858;SHT30;51335;51.148;6.950;2023-06-14T01:47:27;14.62;73.66
64858;SHT30;51335;51.148;6.950;2023-06-14T01:47:58;14.64;73.55
64858;SHT30;51335;51.148;6.950;2023-06-14T01:48:29;14.67;73.57
64858;SHT30;51335;51.148;6.950;2023-06-14T01:48:59;14.70;73.64
64858;SHT30;51335;51.148;6.950;2023-06-14T01:49:33;14.70;73.54
64858;SHT30;51335;51.148;6.950;2023-06-14T01:50:04;14.73;73.56
64858;SHT30;51335;51.148;6.950;2023-06-14T01:50:35;14.76;73.50
64858;SHT30;51335;51.148;6.950;2023-06-14T01:51:05;14.74;73.50
64858;SHT30;51335;51.148;6.950;2023-06-14T01:51:35;14.79;73.50
64858;SHT30;51335;51.148;6.950;2023-06-14T01:52:06;14.81;73.33
64858;SHT30;51335;51.148;6.950;2023-06-14T01:52:39;14.91;73.17
64858;SHT30;51335;51.148;6.950;2023-06-14T01:53:10;14.98;72.99
64858;SHT30;51335;51.148;6.950;2023-06-14T01:53:40;15.04;72.81
64858;SHT30;51335;51.148;6.950;2023-06-14T01:54:11;15.04;72.71
64858;SHT30;51335;51.148;6.950;2023-06-14T01:54:41;15.05;72.77
64858;SHT30;51335;51.148;6.950;2023-06-14T01:55:11;15.07;72.73
64858;SHT30;51335;51.148;6.950;2023-06-14T01:55:42;15.07;72.70
64858;SHT30;51335;51.148;6.950;2023-06-14T01:56:12;15.05;72.68
64858;SHT30;51335;51.148;6.950;2023-06-14T01:56:42;15.04;72.68
64858;SHT30;51335;51.148;6.950;2023-06-14T01:57:12;15.00;72.63
64858;SHT30;51335;51.148;6.950;2023-06-14T01:57:43;15.03;72.80
64858;SHT30;51335;51.148;6.950;2023-06-14T01:58:13;15.04;72.81
64858;SHT30;51335;51.148;6.950;2023-06-14T01:58:43;15.03;72.78
64858;SHT30;51335;51.148;6.950;2023-06-14T01:59:14;15.07;72.86
64858;SHT30;51335;51.148;6.950;2023-06-14T01:59:44;15.10;72.67
64858;SHT30;51335;51.148;6.950;2023-06-14T02:00:15;15.04;72.60
64858;SHT30;51335;51.148;6.950;2023-06-14T02:00:45;15.01;72.66
64858;SHT30;51335;51.148;6.950;2023-06-14T02:01:15;15.01;72.65
64858;SHT30;51335;51.148;6.950;2023-06-14T02:01:45;14.95;72.73
64858;SHT30;51335;51.148;6.950;2023-06-14T02:02:16;14.98;72.86
64858;SHT30;51335;51.148;6.950;2023-06-14T02:02:46;14.94;72.87
64858;SHT30;51335;51.148;6.950;2023-06-14T02:03:17;14.95;72.94
64858;SHT30;51335;51.148;6.950;2023-06-14T02:03:47;14.90;73.04
64858;SHT30;51335;51.148;6.950;2023-06-14T02:04:17;14.91;73.10
64858;SHT30;51335;51.148;6.950;2023-06-14T02:04:48;14.87;73.11
64858;SHT30;51335;51.148;6.950;2023-06-14T02:05:18;14.88;73.18
64858;SHT30;51335;51.148;6.950;2023-06-14T02:05:48;14.88;73.23
64858;SHT30;51335;51.148;6.950;2023-06-14T02:06:19;14.84;73.30
64858;SHT30;51335;51.148;6.950;2023-06-14T02:06:49;14.84;73.31
64858;SHT30;51335;51.148;6.950;2023-06-14T02:07:19;14.85;73.33
64858;SHT30;51335;51.148;6.950;2023-06-14T02:07:49;14.84;73.31
64858;SHT30;51335;51.148;6.950;2023-06-14T02:08:20;14.83;73.27
64858;SHT30;51335;51.148;6.950;2023-06-14T02:08:50;14.81;73.22
64858;SHT30;51335;51.148;6.950;2023-06-14T02:09:20;14.84;73.32
64858;SHT30;51335;51.148;6.950;2023-06-14T02:09:50;14.79;73.37
64858;SHT30;51335;51.148;6.950;2023-06-14T02:10:21;14.80;73.34
64858;SHT30;51335;51.148;6.950;2023-06-14T02:10:51;14.79;73.33
64858;SHT30;51335;51.148;6.950;2023-06-14T02:11:22;14.76;73.36
64858;SHT30;51335;51.148;6.950;2023-06-14T02:11:52;14.81;73.29
64858;SHT30;51335;51.148;6.950;2023-06-14T02:12:22;14.81;73.41
64858;SHT30;51335;51.148;6.950;2023-06-14T02:12:52;14.76;73.40
64858;SHT30;51335;51.148;6.950;2023-06-14T02:13:23;14.74;73.41
64858;SHT30;51335;51.148;6.950;2023-06-14T02:13:53;14.74;73.40
64858;SHT30;51335;51.148;6.950;2023-06-14T02:14:24;14.72;73.77
64858;SHT30;51335;51.148;6.950;2023-06-14T02:14:54;14.72;73.78
64858;SHT30;51335;51.148;6.950;2023-06-14T02:15:24;14.69;73.61
64858;SHT30;51335;51.148;6.950;2023-06-14T02:15:54;14.66;73.62
64858;SHT30;51335;51.148;6.950;2023-06-14T02:16:25;14.63;73.57
64858;SHT30;51335;51.148;6.950;2023-06-14T02:16:55;14.56;73.61
64858;SHT30;51335;51.148;6.950;2023-06-14T02:17:25;14.52;73.94
64858;SHT30;51335;51.148;6.950;2023-06-14T02:17:56;14.47;74.05
64858;SHT30;51335;51.148;6.950;2023-06-14T02:18:26;14.46;74.11
64858;SHT30;51335;51.148;6.950;2023-06-14T02:18:56;14.42;74.20
64858;SHT30;51335;51.148;6.950;2023-06-14T02:19:26;14.37;74.42
64858;SHT30;51335;51.148;6.950;2023-06-14T02:19:57;14.33;74.44
64858;SHT30;51335;51.148;6.950;2023-06-14T02:20:27;14.32;74.59
64858;SHT30;51335;51.148;6.950;2023-06-14T02:20:58;14.30;74.79
64858;SHT30;51335;51.148;6.950;2023-06-14T02:21:28;14.26;74.82
64858;SHT30;51335;51.148;6.950;2023-06-14T02:21:58;14.26;75.05
64858;SHT30;51335;51.148;6.950;2023-06-14T02:22:29;14.24;75.10
64858;SHT30;51335;51.148;6.950;2023-06-14T02:23:00;14.21;75.10
64858;SHT30;51335;51.148;6.950;2023-06-14T02:23:30;14.21;75.14
64858;SHT30;51335;51.148;6.950;2023-06-14T02:24:00;14.22;75.50
64858;SHT30;51335;51.148;6.950;2023-06-14T02:24:30;14.21;75.69
64858;SHT30;51335;51.148;6.950;2023-06-14T02:25:01;14.18;75.68
64858;SHT30;51335;51.148;6.950;2023-06-14T02:25:31;14.16;75.67
64858;SHT30;51335;51.148;6.950;2023-06-14T02:26:01;14.11;75.63
64858;SHT30;51335;51.148;6.950;2023-06-14T02:26:31;14.11;75.52
64858;SHT30;51335;51.148;6.950;2023-06-14T02:27:03;14.08;75.73
64858;SHT30;51335;51.148;6.950;2023-06-14T02:27:34;14.06;75.82
64858;SHT30;51335;51.148;6.950;2023-06-14T02:28:04;14.04;75.97
64858;SHT30;51335;51.148;6.950;2023-06-14T02:28:34;14.02;76.15
64858;SHT30;51335;51.148;6.950;2023-06-14T02:29:05;14.04;76.24
64858;SHT30;51335;51.148;6.950;2023-06-14T02:29:35;14.05;76.22
64858;SHT30;51335;51.148;6.950;2023-06-14T02:30:06;14.04;76.33
64858;SHT30;51335;51.148;6.950;2023-06-14T02:30:36;14.01;76.37
64858;SHT30;51335;51.148;6.950;2023-06-14T02:31:07;14.00;76.41
64858;SHT30;51335;51.148;6.950;2023-06-14T02:31:38;13.98;76.46
64858;SHT30;51335;51.148;6.950;2023-06-14T02:32:09;13.94;76.56
64858;SHT30;51335;51.148;6.950;2023-06-14T02:32:39;13.91;76.71
64858;SHT30;51335;51.148;6.950;2023-06-14T02:33:09;13.89;76.79
64858;SHT30;51335;51.148;6.950;2023-06-14T02:33:40;13.87;76.91
64858;SHT30;51335;51.148;6.950;2023-06-14T02:34:10;13.87;77.05
64858;SHT30;51335;51.148;6.950;2023-06-14T02:34:40;13.84;77.18
64858;SHT30;51335;51.148;6.950;2023-06-14T02:35:10;13.81;77.36
64858;SHT30;51335;51.148;6.950;2023-06-14T02:35:41;13.79;77.44
64858;SHT30;51335;51.148;6.950;2023-06-14T02:36:11;13.79;77.48
64858;SHT30;51335;51.148;6.950;2023-06-14T02:36:41;13.73;77.57
64858;SHT30;51335;51.148;6.950;2023-06-14T02:37:11;13.74;77.54
64858;SHT30;51335;51.148;6.950;2023-06-14T02:37:42;13.70;77.71
64858;SHT30;51335;51.148;6.950;2023-06-14T02:38:12;13.68;77.64
64858;SHT30;51335;51.148;6.950;2023-06-14T02:38:42;13.67;77.79
64858;SHT30;51335;51.148;6.950;2023-06-14T02:39:13;13.67;77.86
64858;SHT30;51335;51.148;6.950;2023-06-14T02:39:43;13.61;78.22
64858;SHT30;51335;51.148;6.950;2023-06-14T02:40:13;13.61;78.19
64858;SHT30;51335;51.148;6.950;2023-06-14T02:40:43;13.66;78.44
64858;SHT30;51335;51.148;6.950;2023-06-14T02:41:14;13.63;78.57
64858;SHT30;51335;51.148;6.950;2023-06-14T02:41:44;13.61;78.64
64858;SHT30;51335;51.148;6.950;2023-06-14T02:42:14;13.57;78.72
64858;SHT30;51335;51.148;6.950;2023-06-14T02:42:44;13.61;78.98
64858;SHT30;51335;51.148;6.950;2023-06-14T02:43:15;13.58;79.09
64858;SHT30;51335;51.148;6.950;2023-06-14T02:43:45;13.57;79.21
64858;SHT30;51335;51.148;6.950;2023-06-14T02:44:17;13.60;79.09
64858;SHT30;51335;51.148;6.950;2023-06-14T02:44:48;13.57;78.84
64858;SHT30;51335;51.148;6.950;2023-06-14T02:45:18;13.53;78.86
64858;SHT30;51335;51.148;6.950;2023-06-14T02:45:48;13.58;79.06
64858;SHT30;51335;51.148;6.950;2023-06-14T02:46:19;13.58;79.16
64858;SHT30;51335;51.148;6.950;2023-06-14T02:46:49;13.53;79.16
64858;SHT30;51335;51.148;6.950;2023-06-14T02:47:19;13.53;79.00
64858;SHT30;51335;51.148;6.950;2023-06-14T02:47:49;13.50;78.84
64858;SHT30;51335;51.148;6.950;2023-06-14T02:48:20;13.49;78.77
64858;SHT30;51335;51.148;6.950;2023-06-14T02:48:50;13.46;78.80
64858;SHT30;51335;51.148;6.950;2023-06-14T02:49:21;13.43;79.01
64858;SHT30;51335;51.148;6.950;2023-06-14T02:49:51;13.43;78.97
64858;SHT30;51335;51.148;6.950;2023-06-14T02:50:22;13.44;78.93
64858;SHT30;51335;51.148;6.950;2023-06-14T02:50:52;13.44;78.96
64858;SHT30;51335;51.148;6.950;2023-06-14T02:51:22;13.50;78.81
64858;SHT30;51335;51.148;6.950;2023-06-14T02:51:52;13.50;78.59
64858;SHT30;51335;51.148;6.950;2023-06-14T02:52:23;13.56;78.63
64858;SHT30;51335;51.148;6.950;2023-06-14T02:52:53;13.54;78.61
64858;SHT30;51335;51.148;6.950;2023-06-14T02:53:23;13.51;78.65
64858;SHT30;51335;51.148;6.950;2023-06-14T02:53:53;13.56;78.91
64858;SHT30;51335;51.148;6.950;2023-06-14T02:54:24;13.61;79.04
64858;SHT30;51335;51.148;6.950;2023-06-14T02:54:54;13.63;78.88
64858;SHT30;51335;51.148;6.950;2023-06-14T02:55:24;13.68;78.79
64858;SHT30;51335;51.148;6.950;2023-06-14T02:55:54;13.67;78.76
64858;SHT30;51335;51.148;6.950;2023-06-14T02:56:25;13.68;78.78
64858;SHT30;51335;51.148;6.950;2023-06-14T02:56:55;13.70;78.77
64858;SHT30;51335;51.148;6.950;2023-06-14T02:57:25;13.67;78.64
64858;SHT30;51335;51.148;6.950;2023-06-14T02:57:55;13.67;78.56
64858;SHT30;51335;51.148;6.950;2023-06-14T02:58:26;13.68;78.44
64858;SHT30;51335;51.148;6.950;2023-06-14T02:58:56;13.71;78.23
64858;SHT30;51335;51.148;6.950;2023-06-14T02:59:27;13.67;78.17
64858;SHT30;51335;51.148;6.950;2023-06-14T02:59:57;13.70;78.00
64858;SHT30;51335;51.148;6.950;2023-06-14T03:00:27;13.74;77.90
64858;SHT30;51335;51.148;6.950;2023-06-14T03:00:57;13.73;77.82
64858;SHT30;51335;51.148;6.950;2023-06-14T03:01:28;13.78;77.80
64858;SHT30;51335;51.148;6.950;2023-06-14T03:01:58;13.78;77.77
64858;SHT30;51335;51.148;6.950;2023-06-14T03:02:28;13.87;77.64
64858;SHT30;51335;51.148;6.950;2023-06-14T03:02:58;13.82;77.54
64858;SHT30;51335;51.148;6.950;2023-06-14T03:03:29;13.81;77.54
64858;SHT30;51335;51.148;6.950;2023-06-14T03:04:03;13.78;77.43
64858;SHT30;51335;51.148;6.950;2023-06-14T03:04:33;13.71;77.44
64858;SHT30;51335;51.148;6.950;2023-06-14T03:05:03;13.70;77.48
64858;SHT30;51335;51.148;6.950;2023-06-14T03:05:34;13.71;77.68
64858;SHT30;51335;51.148;6.950;2023-06-14T03:06:04;13.64;77.70
64858;SHT30;51335;51.148;6.950;2023-06-14T03:06:34;13.61;77.76
64858;SHT30;51335;51.148;6.950;2023-06-14T03:07:05;13.56;78.02
64858;SHT30;51335;51.148;6.950;2023-06-14T03:07:35;13.53;78.16
64858;SHT30;51335;51.148;6.950;2023-06-14T03:08:05;13.54;78.23
64858;SHT30;51335;51.148;6.950;2023-06-14T03:08:36;13.53;78.39
64858;SHT30;51335;51.148;6.950;2023-06-14T03:09:06;13.49;78.39
64858;SHT30;51335;51.148;6.950;2023-06-14T03:09:36;13.47;78.37
64858;SHT30;51335;51.148;6.950;2023-06-14T03:10:10;13.49;78.47
64858;SHT30;51335;51.148;6.950;2023-06-14T03:10:40;13.44;78.44
64858;SHT30;51335;51.148;6.950;2023-06-14T03:11:10;13.42;78.84
64858;SHT30;51335;51.148;6.950;2023-06-14T03:11:41;13.43;79.03
64858;SHT30;51335;51.148;6.950;2023-06-14T03:12:11;13.40;78.93
64858;SHT30;51335;51.148;6.950;2023-06-14T03:12:41;13.37;79.01
64858;SHT30;51335;51.148;6.950;2023-06-14T03:13:12;13.39;79.16
64858;SHT30;51335;51.148;6.950;2023-06-14T03:13:43;13.36;79.29
64858;SHT30;51335;51.148;6.950;2023-06-14T03:14:13;13.37;79.53
64858;SHT30;51335;51.148;6.950;2023-06-14T03:14:43;13.37;79.73
64858;SHT30;51335;51.148;6.950;2023-06-14T03:15:14;13.39;79.93
64858;SHT30;51335;51.148;6.950;2023-06-14T03:15:44;13.37;80.14
64858;SHT30;51335;51.148;6.950;2023-06-14T03:16:14;13.35;80.34
64858;SHT30;51335;51.148;6.950;2023-06-14T03:16:44;13.35;80.45
64858;SHT30;51335;51.148;6.950;2023-06-14T03:17:15;13.33;80.67
64858;SHT30;51335;51.148;6.950;2023-06-14T03:17:45;13.36;80.79
64858;SHT30;51335;51.148;6.950;2023-06-14T03:18:16;13.35;80.85
64858;SHT30;51335;51.148;6.950;2023-06-14T03:18:53;13.33;80.85
64858;SHT30;51335;51.148;6.950;2023-06-14T03:19:23;13.30;80.95